createdAt,value
2023-01-17T00:00:01.916Z,2.8
2023-01-17T00:01:18.195Z,2.4
2023-01-17T00:02:34.495Z,3.1
2023-01-17T00:03:50.807Z,3.1
2023-01-17T00:05:07.085Z,2.4
2023-01-17T00:06:23.384Z,2.6
2023-01-17T00:07:39.674Z,2.4
2023-01-17T00:08:55.981Z,2.9
2023-01-17T00:10:12.261Z,2.1
2023-01-17T00:11:28.565Z,2.1
2023-01-17T00:12:44.860Z,2.2
2023-01-17T00:14:01.132Z,2.1
2023-01-17T00:15:16.450Z,2.4
2023-01-17T00:16:32.742Z,2.6
2023-01-17T00:17:49.044Z,2.2
2023-01-17T00:19:05.325Z,2.3
2023-01-17T00:20:21.640Z,2.5
2023-01-17T00:21:37.914Z,1.4
2023-01-17T00:22:54.217Z,1.8
2023-01-17T00:24:10.510Z,2
2023-01-17T00:25:26.795Z,2.3
2023-01-17T00:26:43.092Z,2.1
2023-01-17T00:27:59.385Z,2.1
2023-01-17T00:29:15.694Z,2.8
2023-01-17T00:30:31.988Z,2.2
2023-01-17T00:31:47.297Z,2.5
2023-01-17T00:33:03.569Z,1.8
2023-01-17T00:34:19.867Z,2.4
2023-01-17T00:35:36.163Z,1.3
2023-01-17T00:36:52.459Z,1.8
2023-01-17T00:38:08.749Z,1.7
2023-01-17T00:39:25.039Z,2
2023-01-17T00:40:41.333Z,4.8
2023-01-17T00:41:57.647Z,1.6
2023-01-17T00:43:13.936Z,1.9
2023-01-17T00:44:30.229Z,1.4
2023-01-17T00:45:46.521Z,2.4
2023-01-17T00:47:02.805Z,1
2023-01-17T00:48:18.124Z,1.3
2023-01-17T00:49:34.408Z,1.1
2023-01-17T00:50:50.715Z,1.1
2023-01-17T00:52:07.001Z,1.1
2023-01-17T00:53:23.285Z,1.7
2023-01-17T00:54:39.582Z,1.4
2023-01-17T00:55:55.873Z,1
2023-01-17T00:57:12.167Z,1
2023-01-17T00:58:28.477Z,1.2
2023-01-17T00:59:44.762Z,1.6
2023-01-17T01:01:01.049Z,0.9
2023-01-17T01:02:17.344Z,2.3
2023-01-17T01:03:33.640Z,0.6
2023-01-17T01:04:48.941Z,0.8
2023-01-17T01:06:05.254Z,1
2023-01-17T01:07:21.522Z,1.6
2023-01-17T01:08:37.818Z,1.4
2023-01-17T01:09:54.130Z,0.9
2023-01-17T01:11:10.417Z,0.9
2023-01-17T01:12:26.709Z,0.9
2023-01-17T01:13:43.019Z,2.4
2023-01-17T01:14:59.292Z,0.6
2023-01-17T01:16:15.583Z,1
2023-01-17T01:17:31.882Z,1.1
2023-01-17T01:18:48.175Z,1.1
2023-01-17T01:20:04.462Z,0.9
2023-01-17T01:21:19.784Z,0.8
2023-01-17T01:22:36.083Z,0.8
2023-01-17T01:23:52.374Z,0.8
2023-01-17T01:25:08.664Z,0.4
2023-01-17T01:26:24.950Z,1.1
2023-01-17T01:27:41.260Z,1
2023-01-17T01:28:57.543Z,1.4
2023-01-17T01:30:13.841Z,0.6
2023-01-17T01:31:30.131Z,0.9
2023-01-17T01:32:46.420Z,0.8
2023-01-17T01:34:02.710Z,1.1
2023-01-17T01:35:19.011Z,2.2
2023-01-17T01:36:35.302Z,3.7
2023-01-17T01:37:50.610Z,3.9
2023-01-17T01:39:06.904Z,4.6
2023-01-17T01:40:23.201Z,4
2023-01-17T01:41:39.500Z,3.1
2023-01-17T01:42:55.792Z,3.3
2023-01-17T01:44:12.073Z,3.6
2023-01-17T01:45:28.365Z,4.7
2023-01-17T01:46:44.662Z,3.1
2023-01-17T01:48:00.963Z,1.7
2023-01-17T01:49:17.257Z,3.3
2023-01-17T01:50:33.542Z,4.7
2023-01-17T01:51:49.841Z,1.9
2023-01-17T01:53:06.128Z,2.2
2023-01-17T01:54:21.438Z,2.4
2023-01-17T01:55:37.730Z,2.8
2023-01-17T01:56:54.040Z,2.9
2023-01-17T01:58:10.322Z,2.1
2023-01-17T01:59:26.604Z,1.8
2023-01-17T02:00:42.920Z,2.1
2023-01-17T02:01:59.196Z,2.3
2023-01-17T02:03:15.499Z,1.3
2023-01-17T02:04:31.786Z,1.8
2023-01-17T02:05:48.098Z,2
2023-01-17T02:07:04.392Z,0.9
2023-01-17T02:08:20.663Z,1.7
2023-01-17T02:09:36.970Z,1.8
2023-01-17T02:10:52.280Z,1.6
2023-01-17T02:12:08.563Z,2.4
2023-01-17T02:13:24.861Z,2.5
2023-01-17T02:14:41.142Z,1.6
2023-01-17T02:15:57.449Z,0.7
2023-01-17T02:17:12.770Z,1.2
2023-01-17T02:18:29.047Z,1.4
2023-01-17T02:19:45.343Z,1.9
2023-01-17T02:21:01.645Z,2.5
2023-01-17T02:22:17.949Z,3.4
2023-01-17T02:23:34.226Z,1
2023-01-17T02:24:50.521Z,1
2023-01-17T02:26:06.807Z,0.9
2023-01-17T02:27:23.120Z,1.3
2023-01-17T02:28:39.412Z,1
2023-01-17T02:29:55.694Z,1
2023-01-17T02:31:11.998Z,0.4
2023-01-17T02:32:28.287Z,1.6
2023-01-17T02:33:44.573Z,1.4
2023-01-17T02:34:59.895Z,0.5
2023-01-17T02:36:16.190Z,0.7
2023-01-17T02:37:32.475Z,0.6
2023-01-17T02:38:48.760Z,0.9
2023-01-17T02:40:05.052Z,1.1
2023-01-17T02:41:21.363Z,1.2
2023-01-17T02:42:37.648Z,0.4
2023-01-17T02:43:53.941Z,0.5
2023-01-17T02:45:10.252Z,0.6
2023-01-17T02:46:26.532Z,1.2
2023-01-17T02:47:42.829Z,1.2
2023-01-17T02:48:59.116Z,0.8
2023-01-17T02:50:15.407Z,0.9
2023-01-17T02:51:30.726Z,0.9
2023-01-17T02:52:47.023Z,0.8
2023-01-17T02:54:03.302Z,0.8
2023-01-17T02:55:19.610Z,0.5
2023-01-17T02:56:35.898Z,0.7
2023-01-17T02:57:52.197Z,1
2023-01-17T02:59:08.470Z,0.5
2023-01-17T03:00:24.785Z,0.8
2023-01-17T03:01:41.067Z,1.1
2023-01-17T03:02:57.357Z,0.5
2023-01-17T03:04:13.654Z,0.8
2023-01-17T03:05:29.945Z,0.8
2023-01-17T03:06:46.236Z,1.1
2023-01-17T03:08:01.560Z,0.5
2023-01-17T03:09:17.842Z,0.8
2023-01-17T03:10:34.137Z,0.6
2023-01-17T03:11:50.431Z,0.9
2023-01-17T03:13:06.731Z,0.8
2023-01-17T03:14:23.012Z,1.3
2023-01-17T03:15:39.313Z,0.5
2023-01-17T03:16:55.606Z,0.9
2023-01-17T03:18:11.913Z,1
2023-01-17T03:19:28.190Z,0.7
2023-01-17T03:20:44.488Z,0.4
2023-01-17T03:22:00.779Z,0.7
2023-01-17T03:23:17.085Z,1
2023-01-17T03:24:32.383Z,0.6
2023-01-17T03:25:48.674Z,0.4
2023-01-17T03:27:04.980Z,0.4
2023-01-17T03:28:21.263Z,1.1
2023-01-17T03:29:37.573Z,0.8
2023-01-17T03:30:53.853Z,1.2
2023-01-17T03:32:10.143Z,0.4
2023-01-17T03:33:26.444Z,0.5
2023-01-17T03:34:42.724Z,0.4
2023-01-17T03:35:59.028Z,0.4
2023-01-17T03:37:15.328Z,0.5
2023-01-17T03:38:31.620Z,1.1
2023-01-17T03:39:47.921Z,0.7
2023-01-17T03:41:03.211Z,2.5
2023-01-17T03:42:19.502Z,0.5
2023-01-17T03:43:35.806Z,0.5
2023-01-17T03:44:52.095Z,1
2023-01-17T03:46:08.388Z,0.4
2023-01-17T03:47:24.677Z,0.9
2023-01-17T03:48:40.989Z,0.9
2023-01-17T03:49:57.267Z,0.6
2023-01-17T03:51:13.568Z,1.2
2023-01-17T03:52:29.856Z,0.6
2023-01-17T03:53:46.157Z,0.5
2023-01-17T03:55:02.448Z,0.9
2023-01-17T03:56:18.731Z,0.6
2023-01-17T03:57:34.049Z,0.4
2023-01-17T03:58:50.345Z,1.3
2023-01-17T04:00:06.648Z,0.6
2023-01-17T04:01:22.935Z,1.4
2023-01-17T04:02:39.219Z,0.5
2023-01-17T04:03:55.515Z,0.7
2023-01-17T04:05:11.808Z,0.8
2023-01-17T04:06:28.109Z,0.6
2023-01-17T04:07:44.406Z,0.6
2023-01-17T04:09:00.694Z,0.4
2023-01-17T04:10:16.980Z,0.8
2023-01-17T04:11:33.285Z,1.3
2023-01-17T04:12:49.566Z,0.7
2023-01-17T04:14:04.870Z,0.7
2023-01-17T04:15:21.183Z,0.6
2023-01-17T04:16:37.464Z,0.5
2023-01-17T04:17:53.763Z,1
2023-01-17T04:19:10.051Z,1.7
2023-01-17T04:20:26.353Z,0.9
2023-01-17T04:21:42.642Z,0.8
2023-01-17T04:22:58.929Z,1.8
2023-01-17T04:24:15.231Z,1.2
2023-01-17T04:25:31.531Z,0.6
2023-01-17T04:26:47.816Z,1.5
2023-01-17T04:29:20.406Z,2.4
2023-01-17T04:30:35.716Z,1.4
2023-01-17T04:31:52.005Z,1.7
2023-01-17T04:33:08.289Z,0.9
2023-01-17T04:35:40.881Z,1.7
2023-01-17T04:36:57.175Z,1.6
2023-01-17T04:38:13.478Z,1.1
2023-01-17T04:39:29.762Z,1.4
2023-01-17T04:40:46.054Z,2
2023-01-17T04:42:02.361Z,1.1
2023-01-17T04:43:18.655Z,1.2
2023-01-17T04:44:34.954Z,0.9
2023-01-17T04:45:51.245Z,2.2
2023-01-17T04:47:06.552Z,1
2023-01-17T04:48:22.834Z,1.5
2023-01-17T04:49:39.129Z,1.6
2023-01-17T04:50:55.432Z,1.4
2023-01-17T04:52:11.719Z,1.6
2023-01-17T04:53:28.016Z,1.7
2023-01-17T04:54:44.315Z,1.4
2023-01-17T04:56:00.587Z,1.9
2023-01-17T04:57:16.904Z,1
2023-01-17T04:58:33.184Z,2.3
2023-01-17T04:59:49.472Z,1.5
2023-01-17T05:01:05.768Z,2.6
2023-01-17T05:02:22.069Z,2.8
2023-01-17T05:03:37.377Z,2
2023-01-17T05:04:53.656Z,1.9
2023-01-17T05:06:09.961Z,3.2
2023-01-17T05:07:26.246Z,2.1
2023-01-17T05:08:42.549Z,2.5
2023-01-17T05:09:58.844Z,2.1
2023-01-17T05:11:15.129Z,2.1
2023-01-17T05:12:31.424Z,3.7
2023-01-17T05:13:47.716Z,1.8
2023-01-17T05:15:04.014Z,2.6
2023-01-17T05:16:20.314Z,2.1
2023-01-17T05:17:36.604Z,2
2023-01-17T05:18:52.896Z,2.8
2023-01-17T05:20:08.198Z,2
2023-01-17T05:21:24.487Z,2.6
2023-01-17T05:22:40.799Z,2.2
2023-01-17T05:23:57.074Z,2.2
2023-01-17T05:25:13.371Z,4.3
2023-01-17T05:26:29.679Z,2.8
2023-01-17T05:27:45.971Z,3.2
2023-01-17T05:29:02.273Z,1.9
2023-01-17T05:30:18.568Z,4.1
2023-01-17T05:31:34.859Z,3.4
2023-01-17T05:32:51.148Z,3.3
2023-01-17T05:34:07.435Z,4.1
2023-01-17T05:35:23.737Z,3.5
2023-01-17T05:36:39.037Z,3.2
2023-01-17T05:37:55.326Z,2.6
2023-01-17T05:39:11.619Z,3.2
2023-01-17T05:40:27.927Z,3.1
2023-01-17T05:41:44.207Z,3.6
2023-01-17T05:43:00.503Z,2.2
2023-01-17T05:44:16.796Z,2.7
2023-01-17T05:45:33.089Z,3.5
2023-01-17T05:46:49.396Z,2.5
2023-01-17T05:48:05.685Z,3.4
2023-01-17T05:49:21.977Z,2.8
2023-01-17T05:50:38.255Z,2.1
2023-01-17T05:51:54.554Z,2.6
2023-01-17T05:53:09.874Z,2
2023-01-17T05:54:26.176Z,2.1
2023-01-17T05:55:42.455Z,2.4
2023-01-17T05:56:58.750Z,2
2023-01-17T05:58:15.038Z,2
2023-01-17T05:59:31.337Z,2.7
2023-01-17T06:00:47.625Z,2.5
2023-01-17T06:02:03.917Z,2.8
2023-01-17T06:03:20.224Z,2
2023-01-17T06:04:36.516Z,2.4
2023-01-17T06:05:52.808Z,3.3
2023-01-17T06:07:09.102Z,4.2
2023-01-17T06:08:25.386Z,2.3
2023-01-17T06:09:40.691Z,4
2023-01-17T06:10:56.991Z,3.3
2023-01-17T06:12:13.283Z,2.6
2023-01-17T06:13:29.586Z,3.4
2023-01-17T06:14:45.875Z,3.6
2023-01-17T06:16:02.171Z,3.3
2023-01-17T06:17:18.451Z,2.5
2023-01-17T06:18:34.757Z,1.9
2023-01-17T06:19:51.044Z,4.2
2023-01-17T06:21:07.342Z,4.5
2023-01-17T06:22:23.635Z,4
2023-01-17T06:23:39.927Z,3.2
2023-01-17T06:24:56.219Z,4.8
2023-01-17T06:26:11.541Z,2.7
2023-01-17T06:27:27.836Z,3.4
2023-01-17T06:28:44.132Z,4.1
2023-01-17T06:30:00.404Z,3.3
2023-01-17T06:31:16.705Z,3.2
2023-01-17T06:32:32.019Z,3
2023-01-17T06:33:48.324Z,2.7
2023-01-17T06:35:04.608Z,4.4
2023-01-17T06:36:20.845Z,4.5
2023-01-17T06:37:37.149Z,2.1
2023-01-17T06:38:53.397Z,4.2
2023-01-17T06:40:09.677Z,3.9
2023-01-17T06:41:25.932Z,2.6
2023-01-17T06:42:42.166Z,5.4
2023-01-17T06:43:58.457Z,2.5
2023-01-17T06:45:14.760Z,2.2
2023-01-17T06:46:31.053Z,3.4
2023-01-17T06:47:47.303Z,4.7
2023-01-17T06:49:02.562Z,3.7
2023-01-17T06:50:18.802Z,2.6
2023-01-17T06:51:35.052Z,5.2
2023-01-17T06:52:51.293Z,3.7
2023-01-17T06:54:07.593Z,3
2023-01-17T06:55:23.874Z,2.8
2023-01-17T06:56:40.146Z,3.7
2023-01-17T06:57:56.374Z,6.1
2023-01-17T06:59:12.618Z,4.9
2023-01-17T07:00:28.848Z,3.1
2023-01-17T07:01:45.087Z,3.1
2023-01-17T07:03:01.326Z,2.2
2023-01-17T07:04:17.565Z,4.4
2023-01-17T07:05:32.822Z,2.2
2023-01-17T07:06:49.069Z,3.8
2023-01-17T07:08:05.305Z,3
2023-01-17T07:09:21.544Z,3.7
2023-01-17T07:10:37.788Z,4
2023-01-17T07:11:54.021Z,4.7
2023-01-17T07:13:10.255Z,3.1
2023-01-17T07:14:26.517Z,5.1
2023-01-17T07:15:42.739Z,3.2
2023-01-17T07:16:58.973Z,4.6
2023-01-17T07:18:15.228Z,3.9
2023-01-17T07:19:31.469Z,3.8
2023-01-17T07:20:47.698Z,3.7
2023-01-17T07:22:02.958Z,2.1
2023-01-17T07:23:19.190Z,4.4
2023-01-17T07:24:35.439Z,3.2
2023-01-17T07:25:51.667Z,4.1
2023-01-17T07:27:07.923Z,3.9
2023-01-17T07:28:24.152Z,4
2023-01-17T07:29:40.391Z,4.6
2023-01-17T07:30:56.622Z,2.9
2023-01-17T07:32:12.879Z,2.7
2023-01-17T07:33:29.119Z,2.1
2023-01-17T07:34:45.341Z,4
2023-01-17T07:36:01.584Z,4
2023-01-17T07:37:17.842Z,3.2
2023-01-17T07:38:33.085Z,2
2023-01-17T07:39:49.316Z,2.4
2023-01-17T07:41:05.564Z,2.5
2023-01-17T07:42:21.808Z,3.1
2023-01-17T07:43:38.035Z,4.1
2023-01-17T07:44:54.287Z,3.1
2023-01-17T07:46:10.516Z,3.4
2023-01-17T07:47:26.762Z,3.4
2023-01-17T07:48:42.994Z,4.4
2023-01-17T07:49:59.248Z,2.5
2023-01-17T07:51:15.485Z,3.5
2023-01-17T07:52:31.725Z,2.9
2023-01-17T07:53:47.964Z,2.3
2023-01-17T07:55:03.216Z,2.4
2023-01-17T07:56:19.462Z,3.1
2023-01-17T07:57:35.705Z,3.7
2023-01-17T07:58:51.941Z,3.6
2023-01-17T08:00:08.171Z,2.1
2023-01-17T08:01:24.423Z,3.2
2023-01-17T08:02:40.664Z,3.5
2023-01-17T08:03:56.888Z,4.5
2023-01-17T08:05:13.127Z,4.1
2023-01-17T08:06:29.374Z,4.8
2023-01-17T08:07:45.619Z,2.5
2023-01-17T08:09:01.843Z,2.4
2023-01-17T08:10:18.085Z,3
2023-01-17T08:11:33.340Z,3.9
2023-01-17T08:12:49.587Z,2.1
2023-01-17T08:14:05.838Z,3.9
2023-01-17T08:15:22.079Z,3.4
2023-01-17T08:16:38.305Z,2.4
2023-01-17T08:17:54.558Z,4
2023-01-17T08:19:10.779Z,2.5
2023-01-17T08:20:27.017Z,2.7
2023-01-17T08:21:43.255Z,2.7
2023-01-17T08:22:59.502Z,2.6
2023-01-17T08:24:15.732Z,3
2023-01-17T08:25:31.982Z,3
2023-01-17T08:26:48.212Z,2.8
2023-01-17T08:28:03.477Z,3.4
2023-01-17T08:29:19.715Z,2.3
2023-01-17T08:30:35.946Z,2.4
2023-01-17T08:31:52.184Z,2.7
2023-01-17T08:33:08.435Z,4.2
2023-01-17T08:34:24.685Z,3.4
2023-01-17T08:35:40.926Z,2.5
2023-01-17T08:36:57.155Z,4.3
2023-01-17T08:38:13.396Z,3.3
2023-01-17T08:39:29.641Z,2.4
2023-01-17T08:40:45.867Z,3.6
2023-01-17T08:42:02.109Z,3.9
2023-01-17T08:43:18.351Z,2.2
2023-01-17T08:44:33.608Z,2.9
2023-01-17T08:45:49.843Z,4.3
2023-01-17T08:47:06.085Z,2.5
2023-01-17T08:48:22.321Z,2.6
2023-01-17T08:49:38.560Z,2.9
2023-01-17T08:50:54.817Z,2.5
2023-01-17T08:52:11.053Z,1.9
2023-01-17T08:53:27.282Z,3.2
2023-01-17T08:54:43.519Z,1.7
2023-01-17T08:55:59.757Z,2.2
2023-01-17T08:57:16.004Z,4.2
2023-01-17T08:58:32.236Z,2.6
2023-01-17T08:59:48.479Z,2.3
2023-01-17T09:01:04.729Z,2.5
2023-01-17T09:02:19.969Z,3.5
2023-01-17T09:03:36.216Z,2.8
2023-01-17T09:04:52.451Z,2.4
2023-01-17T09:06:08.707Z,4.1
2023-01-17T09:07:24.932Z,3.5
2023-01-17T09:08:41.168Z,3.9
2023-01-17T09:09:57.416Z,3.2
2023-01-17T09:11:13.653Z,2.7
2023-01-17T09:12:29.883Z,3.3
2023-01-17T09:13:46.130Z,3.2
2023-01-17T09:15:02.377Z,2.6
2023-01-17T09:16:18.615Z,2.7
2023-01-17T09:17:34.848Z,2.2
2023-01-17T09:18:51.100Z,4.8
2023-01-17T09:20:06.347Z,2.7
2023-01-17T09:21:22.584Z,3.6
2023-01-17T09:22:38.821Z,3.4
2023-01-17T09:23:55.061Z,2.3
2023-01-17T09:25:11.311Z,2.4
2023-01-17T09:26:27.546Z,2.3
2023-01-17T09:27:43.788Z,3.3
2023-01-17T09:29:00.032Z,2.6
2023-01-17T09:30:16.251Z,2.6
2023-01-17T09:31:32.503Z,5.6
2023-01-17T09:32:48.737Z,3.7
2023-01-17T09:34:04.978Z,2.6
2023-01-17T09:35:21.211Z,2.9
2023-01-17T09:36:36.481Z,3.9
2023-01-17T09:37:52.722Z,2.2
2023-01-17T09:39:08.950Z,2.6
2023-01-17T09:40:25.190Z,2.8
2023-01-17T09:41:41.434Z,2.7
2023-01-17T09:42:57.677Z,3.7
2023-01-17T09:44:13.905Z,3.3
2023-01-17T09:45:30.147Z,3.3
2023-01-17T09:46:46.385Z,4.4
2023-01-17T09:48:02.639Z,4.4
2023-01-17T09:49:18.864Z,4.8
2023-01-17T09:50:35.118Z,3.7
2023-01-17T09:51:51.360Z,4.3
2023-01-17T09:53:06.603Z,3.3
2023-01-17T09:54:22.846Z,3.2
2023-01-17T09:55:39.084Z,2.7
2023-01-17T09:56:55.318Z,3
2023-01-17T09:58:11.556Z,4.6
2023-01-17T09:59:27.806Z,3
2023-01-17T10:00:44.050Z,3.4
2023-01-17T10:02:00.275Z,3.5
2023-01-17T10:03:16.530Z,3.2
2023-01-17T10:04:32.754Z,3.1
2023-01-17T10:05:49.002Z,2.3
2023-01-17T10:07:05.236Z,3.5
2023-01-17T10:08:21.475Z,2.8
2023-01-17T10:09:36.732Z,3.7
2023-01-17T10:10:52.976Z,2.9
2023-01-17T10:12:09.211Z,3.9
2023-01-17T10:13:25.453Z,3.6
2023-01-17T10:14:41.690Z,3.6
2023-01-17T10:15:57.938Z,3.6
2023-01-17T10:17:14.181Z,3.2
2023-01-17T10:18:30.424Z,2.4
2023-01-17T10:19:46.648Z,4.5
2023-01-17T10:21:02.888Z,3.5
2023-01-17T10:22:19.136Z,3.9
2023-01-17T10:23:35.360Z,3.2
2023-01-17T10:24:51.620Z,4.6
2023-01-17T10:26:06.870Z,2.6
2023-01-17T10:27:23.096Z,3.1
2023-01-17T10:28:39.345Z,2.9
2023-01-17T10:29:55.592Z,2.8
2023-01-17T10:31:11.819Z,4
2023-01-17T10:32:28.058Z,4.3
2023-01-17T10:33:44.296Z,2.7
2023-01-17T10:35:00.529Z,3.4
2023-01-17T10:36:16.779Z,4.4
2023-01-17T10:37:33.021Z,3.7
2023-01-17T10:38:49.252Z,2.6
2023-01-17T10:40:05.500Z,2.9
2023-01-17T10:41:21.736Z,2.3
2023-01-17T10:42:36.993Z,2
2023-01-17T10:43:53.232Z,2.7
2023-01-17T10:45:09.467Z,2.9
2023-01-17T10:46:25.701Z,3.3
2023-01-17T10:47:40.969Z,3.1
2023-01-17T10:48:57.216Z,3.1
2023-01-17T10:50:13.440Z,2.2
2023-01-17T10:51:29.689Z,2.5
2023-01-17T10:52:45.930Z,3.3
2023-01-17T10:54:02.162Z,2.1
2023-01-17T10:55:18.403Z,2
2023-01-17T10:56:34.660Z,3
2023-01-17T10:57:50.891Z,2.9
2023-01-17T10:59:07.120Z,2.3
2023-01-17T11:00:23.358Z,2
2023-01-17T11:01:39.615Z,2.4
2023-01-17T11:02:55.853Z,2
2023-01-17T11:04:11.110Z,3.2
2023-01-17T11:05:27.355Z,1.7
2023-01-17T11:06:43.603Z,3.9
2023-01-17T11:07:59.000Z,4.2
2023-01-17T11:09:16.078Z,4
2023-01-17T11:10:32.321Z,3.5
2023-01-17T11:11:48.562Z,2.8
2023-01-17T11:13:04.805Z,3.5
2023-01-17T11:14:21.028Z,3.4
2023-01-17T11:15:37.287Z,3
2023-01-17T11:16:53.520Z,4.1
2023-01-17T11:18:09.762Z,3.1
2023-01-17T11:19:26.005Z,2.1
2023-01-17T11:20:41.253Z,3.7
2023-01-17T11:21:57.483Z,3.7
2023-01-17T11:23:13.738Z,1.9
2023-01-17T11:24:29.965Z,1.6
2023-01-17T11:25:46.204Z,3.5
2023-01-17T11:27:02.440Z,3.3
2023-01-17T11:28:18.688Z,4.2
2023-01-17T11:29:34.919Z,4.5
2023-01-17T11:30:51.165Z,3.7
2023-01-17T11:32:07.410Z,2.2
2023-01-17T11:33:23.655Z,2.2
2023-01-17T11:34:39.877Z,2.8
2023-01-17T11:35:56.143Z,1.9
2023-01-17T11:37:11.389Z,3.5
2023-01-17T11:38:27.625Z,1.8
2023-01-17T11:39:43.864Z,4.1
2023-01-17T11:41:00.111Z,4.8
2023-01-17T11:42:16.345Z,2.4
2023-01-17T11:43:32.595Z,3.6
2023-01-17T11:44:48.835Z,2.5
2023-01-17T11:46:05.084Z,3.9
2023-01-17T11:47:21.325Z,4.3
2023-01-17T11:48:37.557Z,2.7
2023-01-17T11:49:53.804Z,2.4
2023-01-17T11:51:10.046Z,3
2023-01-17T11:52:26.275Z,7.1
2023-01-17T11:53:41.543Z,3.2
2023-01-17T11:54:57.775Z,3
2023-01-17T11:56:14.024Z,4.9
2023-01-17T11:57:30.252Z,4.2
2023-01-17T11:58:46.508Z,4.1
2023-01-17T12:00:02.729Z,3.5
2023-01-17T12:01:18.988Z,3.1
2023-01-17T12:02:35.227Z,2.4
2023-01-17T12:03:51.461Z,6.1
2023-01-17T12:05:07.697Z,4.5
2023-01-17T12:06:23.945Z,3.8
2023-01-17T12:07:40.186Z,3.1
2023-01-17T12:08:56.410Z,2.9
2023-01-17T12:10:11.665Z,2.5
2023-01-17T12:11:27.923Z,1.6
2023-01-17T12:12:44.158Z,2
2023-01-17T12:14:00.385Z,1.8
2023-01-17T12:15:16.627Z,1.6
2023-01-17T12:16:32.871Z,2.4
2023-01-17T12:17:49.111Z,1.7
2023-01-17T12:19:05.350Z,3
2023-01-17T12:20:21.595Z,1.8
2023-01-17T12:21:37.836Z,1.5
2023-01-17T12:22:54.071Z,2.5
2023-01-17T12:24:10.314Z,2.3
2023-01-17T12:25:26.548Z,1.3
2023-01-17T12:26:41.800Z,2.8
2023-01-17T12:27:58.045Z,2.4
2023-01-17T12:29:14.280Z,2.5
2023-01-17T12:30:30.523Z,2.4
2023-01-17T12:31:46.760Z,2.6
2023-01-17T12:33:03.007Z,2.9
2023-01-17T12:34:19.252Z,1.5
2023-01-17T12:35:35.487Z,2.6
2023-01-17T12:36:51.723Z,1.4
2023-01-17T12:38:07.964Z,1.3
2023-01-17T12:39:24.208Z,2.1
2023-01-17T12:40:40.439Z,0.9
2023-01-17T12:41:56.690Z,3.4
2023-01-17T12:43:11.945Z,1.8
2023-01-17T12:44:28.177Z,2.5
2023-01-17T12:45:44.426Z,2.6
2023-01-17T12:47:00.669Z,2.4
2023-01-17T12:48:16.894Z,2.8
2023-01-17T12:49:33.136Z,2.2
2023-01-17T12:50:49.376Z,2.6
2023-01-17T12:52:05.613Z,4.4
2023-01-17T12:53:21.870Z,3.6
2023-01-17T12:54:38.106Z,3.7
2023-01-17T12:55:54.335Z,3.3
2023-01-17T12:57:10.573Z,1.4
2023-01-17T12:58:26.819Z,2.5
2023-01-17T12:59:42.084Z,1.3
2023-01-17T13:00:58.322Z,2.8
2023-01-17T13:02:14.540Z,1.2
2023-01-17T13:03:30.777Z,2.8
2023-01-17T13:04:47.027Z,7.1
2023-01-17T13:06:03.278Z,1.5
2023-01-17T13:07:19.515Z,2.2
2023-01-17T13:08:35.738Z,2.5
2023-01-17T13:09:51.999Z,2.6
2023-01-17T13:11:08.229Z,2.5
2023-01-17T13:12:24.467Z,2.5
2023-01-17T13:13:40.710Z,2.8
2023-01-17T13:14:56.956Z,2.8
2023-01-17T13:16:12.192Z,2
2023-01-17T13:17:28.452Z,3.5
2023-01-17T13:18:44.680Z,2.4
2023-01-17T13:20:00.920Z,2.6
2023-01-17T13:21:17.169Z,3.2
2023-01-17T13:22:33.413Z,1.6
2023-01-17T13:23:49.652Z,2.4
2023-01-17T13:25:05.887Z,2.4
2023-01-17T13:26:22.112Z,2.8
2023-01-17T13:27:38.354Z,2
2023-01-17T13:28:54.585Z,2.1
2023-01-17T13:30:10.833Z,3.8
2023-01-17T13:31:27.072Z,2.4
2023-01-17T13:32:42.331Z,2.9
2023-01-17T13:33:58.566Z,2.4
2023-01-17T13:36:31.043Z,2
2023-01-17T13:37:47.288Z,2.8
2023-01-17T13:39:03.524Z,1.8
2023-01-17T13:40:19.782Z,3.4
2023-01-17T13:41:36.013Z,2.9
2023-01-17T13:42:52.242Z,2.3
2023-01-17T13:44:08.486Z,4.4
2023-01-17T13:45:24.713Z,2.5
2023-01-17T13:46:40.967Z,2.5
2023-01-17T13:47:57.209Z,2.7
2023-01-17T13:49:12.461Z,3.3
2023-01-17T13:50:28.684Z,2
2023-01-17T13:51:44.942Z,2.8
2023-01-17T13:53:01.184Z,3.4
2023-01-17T13:54:17.418Z,2.6
2023-01-17T13:56:49.903Z,2.6
2023-01-17T13:58:06.132Z,3.3
2023-01-17T13:59:22.363Z,2
2023-01-17T14:00:38.616Z,4.2
2023-01-17T14:01:54.868Z,2.7
2023-01-17T14:03:11.097Z,1.7
2023-01-17T14:04:27.318Z,2.3
2023-01-17T14:05:42.585Z,2.7
2023-01-17T14:06:58.816Z,3.2
2023-01-17T14:08:15.062Z,2.7
2023-01-17T14:09:31.304Z,7.8
2023-01-17T14:10:47.557Z,2.5
2023-01-17T14:12:03.783Z,3.6
2023-01-17T14:13:20.027Z,2.2
2023-01-17T14:14:36.268Z,5.1
2023-01-17T14:15:52.502Z,1.3
2023-01-17T14:17:08.732Z,3.7
2023-01-17T14:18:24.996Z,2.7
2023-01-17T14:19:41.206Z,3.2
2023-01-17T14:20:57.467Z,3.7
2023-01-17T14:22:12.718Z,2.4
2023-01-17T14:23:28.960Z,3.8
2023-01-17T14:24:45.200Z,4
2023-01-17T14:26:01.433Z,3.5
2023-01-17T14:27:17.674Z,3.9
2023-01-17T14:28:33.908Z,3.6
2023-01-17T14:29:50.148Z,2.9
2023-01-17T14:31:06.379Z,2.9
2023-01-17T14:32:22.630Z,2.8
2023-01-17T14:33:38.872Z,3
2023-01-17T14:34:55.110Z,4.6
2023-01-17T14:36:11.356Z,1.9
2023-01-17T14:37:27.600Z,2.4
2023-01-17T14:38:42.857Z,1.6
2023-01-17T14:39:59.096Z,2.2
2023-01-17T14:41:15.334Z,2.7
2023-01-17T14:42:31.578Z,2.4
2023-01-17T14:43:47.804Z,2.8
2023-01-17T14:45:04.051Z,2.5
2023-01-17T14:46:20.284Z,1.8
2023-01-17T14:47:36.520Z,3.1
2023-01-17T14:48:52.766Z,2.6
2023-01-17T14:50:08.998Z,3
2023-01-17T14:51:25.243Z,2.8
2023-01-17T14:52:41.483Z,2.8
2023-01-17T14:53:57.714Z,3
2023-01-17T14:55:12.970Z,3.5
2023-01-17T14:56:29.210Z,4.6
2023-01-17T14:57:45.446Z,4.5
2023-01-17T14:59:01.684Z,7.3
2023-01-17T15:00:17.929Z,7.2
2023-01-17T15:01:34.183Z,7.7
2023-01-17T15:02:49.459Z,7.2
2023-01-17T15:04:05.692Z,2.9
2023-01-17T15:05:21.921Z,4.4
2023-01-17T15:06:38.157Z,3.7
2023-01-17T15:07:54.399Z,4.4
2023-01-17T15:09:10.653Z,5
2023-01-17T15:10:26.882Z,5.9
2023-01-17T15:11:43.118Z,6.2
2023-01-17T15:12:59.369Z,6.3
2023-01-17T15:14:15.601Z,5.5
2023-01-17T15:15:31.833Z,6.4
2023-01-17T15:16:48.074Z,10.1
2023-01-17T15:18:04.315Z,9.7
2023-01-17T15:19:19.570Z,9.6
2023-01-17T15:20:35.804Z,6.3
2023-01-17T15:21:52.057Z,6.5
2023-01-17T15:23:08.280Z,4.4
2023-01-17T15:24:24.530Z,4.7
2023-01-17T15:25:40.771Z,6.1
2023-01-17T15:26:57.012Z,3.5
2023-01-17T15:28:13.260Z,3.5
2023-01-17T15:29:29.490Z,4.3
2023-01-17T15:30:45.717Z,2.7
2023-01-17T15:32:01.980Z,2.6
2023-01-17T15:33:18.205Z,2.2
2023-01-17T15:34:34.446Z,4.1
2023-01-17T15:35:49.715Z,3.4
2023-01-17T15:37:05.934Z,4.6
2023-01-17T15:38:22.176Z,4.8
2023-01-17T15:39:38.421Z,3.1
2023-01-17T15:40:54.650Z,3.3
2023-01-17T15:42:10.906Z,3.3
2023-01-17T15:43:27.144Z,3.8
2023-01-17T15:44:43.392Z,2.5
2023-01-17T15:45:59.617Z,2.7
2023-01-17T15:47:15.854Z,3.9
2023-01-17T15:48:32.097Z,5.1
2023-01-17T15:49:48.336Z,6.1
2023-01-17T15:51:04.574Z,6.6
2023-01-17T15:52:19.832Z,8.3
2023-01-17T15:53:36.066Z,11.4
2023-01-17T15:54:52.322Z,11.9
2023-01-17T15:56:08.549Z,11.9
2023-01-17T15:57:24.867Z,9.7
2023-01-17T15:58:41.150Z,8.1
2023-01-17T15:59:57.401Z,8.3
2023-01-17T16:01:13.631Z,7.1
2023-01-17T16:02:29.935Z,6.2
2023-01-17T16:03:46.219Z,6
2023-01-17T16:05:02.507Z,6
2023-01-17T16:06:18.809Z,6.3
2023-01-17T16:07:35.098Z,5.4
2023-01-17T16:08:50.412Z,5.2
2023-01-17T16:10:06.699Z,7.7
2023-01-17T16:11:23.003Z,7.6
2023-01-17T16:12:39.295Z,5.8
2023-01-17T16:13:55.583Z,6.4
2023-01-17T16:15:11.878Z,7.8
2023-01-17T16:16:28.169Z,8.4
2023-01-17T16:17:44.458Z,9.1
2023-01-17T16:19:00.752Z,8.4
2023-01-17T16:20:17.051Z,8.3
2023-01-17T16:21:33.338Z,10.6
2023-01-17T16:22:49.639Z,12
2023-01-17T16:24:05.924Z,17.7
2023-01-17T16:25:21.231Z,27.1
2023-01-17T16:26:37.529Z,24.5
2023-01-17T16:27:53.820Z,23.3
2023-01-17T16:29:10.113Z,11
2023-01-17T16:30:26.410Z,8.5
2023-01-17T16:31:42.702Z,5.5
2023-01-17T16:32:58.988Z,7.1
2023-01-17T16:34:15.288Z,9.1
2023-01-17T16:35:31.585Z,5.7
2023-01-17T16:36:47.875Z,4.6
2023-01-17T16:38:04.177Z,4.8
2023-01-17T16:39:20.477Z,3.7
2023-01-17T16:40:36.748Z,4.1
2023-01-17T16:41:53.046Z,3.9
2023-01-17T16:43:08.372Z,3.4
2023-01-17T16:44:24.649Z,7.2
2023-01-17T16:45:40.954Z,5.5
2023-01-17T16:46:57.248Z,5.5
2023-01-17T16:48:13.533Z,6.7
2023-01-17T16:49:29.834Z,4.9
2023-01-17T16:50:46.122Z,6.3
2023-01-17T16:52:02.412Z,6.1
2023-01-17T16:53:18.713Z,5.3
2023-01-17T16:54:35.004Z,5.8
2023-01-17T16:55:51.290Z,5.8
2023-01-17T16:57:07.588Z,7.2
2023-01-17T16:58:23.880Z,7.4
2023-01-17T16:59:39.191Z,8.4
2023-01-17T17:00:55.478Z,5.9
2023-01-17T17:02:11.774Z,6.8
2023-01-17T17:03:28.061Z,5.4
2023-01-17T17:04:44.357Z,6.6
2023-01-17T17:06:00.656Z,6.5
2023-01-17T17:07:16.944Z,6.1
2023-01-17T17:08:33.243Z,4.9
2023-01-17T17:09:49.554Z,4.5
2023-01-17T17:11:05.825Z,5.1
2023-01-17T17:12:22.127Z,4.8
2023-01-17T17:13:38.417Z,5.7
2023-01-17T17:14:54.712Z,5.1
2023-01-17T17:16:10.018Z,5.1
2023-01-17T17:17:26.317Z,6.7
2023-01-17T17:18:42.608Z,6
2023-01-17T17:19:58.899Z,5.3
2023-01-17T17:21:15.197Z,7.5
2023-01-17T17:22:31.480Z,6.6
2023-01-17T17:23:47.787Z,6.2
2023-01-17T17:25:04.068Z,7.2
2023-01-17T17:26:20.364Z,6.9
2023-01-17T17:27:36.660Z,7
2023-01-17T17:28:52.968Z,6.6
2023-01-17T17:30:09.257Z,6.7
2023-01-17T17:32:41.824Z,7.7
2023-01-17T17:33:57.142Z,7.3
2023-01-17T17:35:13.419Z,8.2
2023-01-17T17:36:29.710Z,10.2
2023-01-17T17:37:46.032Z,8.2
2023-01-17T17:39:02.308Z,9.3
2023-01-17T17:40:18.608Z,10.1